sensor_id;sensor_type;location;lat;lon;timestamp;temperature;humidity
62583;DHT22;48641;51.676;5.808;2023-06-22T00:02:25;27.30;52.50
62583;DHT22;48641;51.676;5.808;2023-06-22T00:04:51;27.20;52.50
62583;DHT22;48641;51.676;5.808;2023-06-22T00:07:16;27.20;52.50
62583;DHT22;48641;51.676;5.808;2023-06-22T00:09:42;27.20;52.50
62583;DHT22;48641;51.676;5.808;2023-06-22T00:12:08;27.20;52.50
62583;DHT22;48641;51.676;5.808;2023-06-22T00:14:33;27.20;52.50
62583;DHT22;48641;51.676;5.808;2023-06-22T00:16:59;27.20;52.50
62583;DHT22;48641;51.676;5.808;2023-06-22T00:19:24;27.20;52.50
62583;DHT22;48641;51.676;5.808;2023-06-22T00:21:50;27.20;52.60
62583;DHT22;48641;51.676;5.808;2023-06-22T00:24:19;27.20;52.50
62583;DHT22;48641;51.676;5.808;2023-06-22T00:26:45;27.20;52.60
62583;DHT22;48641;51.676;5.808;2023-06-22T00:29:11;27.20;52.50
62583;DHT22;48641;51.676;5.808;2023-06-22T00:31:36;27.20;52.50
62583;DHT22;48641;51.676;5.808;2023-06-22T00:34:02;27.20;52.50
62583;DHT22;48641;51.676;5.808;2023-06-22T00:36:28;27.20;52.50
62583;DHT22;48641;51.676;5.808;2023-06-22T00:38:53;27.20;52.50
62583;DHT22;48641;51.676;5.808;2023-06-22T00:41:19;27.20;52.50
62583;DHT22;48641;51.676;5.808;2023-06-22T00:43:45;27.10;52.60
62583;DHT22;48641;51.676;5.808;2023-06-22T00:46:11;27.10;52.60
62583;DHT22;48641;51.676;5.808;2023-06-22T00:48:37;27.10;52.60
62583;DHT22;48641;51.676;5.808;2023-06-22T00:51:02;27.10;52.60
62583;DHT22;48641;51.676;5.808;2023-06-22T00:53:28;27.10;52.60
62583;DHT22;48641;51.676;5.808;2023-06-22T00:55:54;27.10;52.60
62583;DHT22;48641;51.676;5.808;2023-06-22T00:58:21;27.10;52.50
62583;DHT22;48641;51.676;5.808;2023-06-22T01:00:47;27.20;52.50
62583;DHT22;48641;51.676;5.808;2023-06-22T01:03:13;27.20;52.50
62583;DHT22;48641;51.676;5.808;2023-06-22T01:05:39;27.10;52.50
62583;DHT22;48641;51.676;5.808;2023-06-22T01:11:04;27.10;52.50
62583;DHT22;48641;51.676;5.808;2023-06-22T01:13:54;27.10;52.60
62583;DHT22;48641;51.676;5.808;2023-06-22T01:16:32;27.10;52.60
62583;DHT22;48641;51.676;5.808;2023-06-22T01:19:07;27.00;52.60
62583;DHT22;48641;51.676;5.808;2023-06-22T01:21:35;27.00;52.70
62583;DHT22;48641;51.676;5.808;2023-06-22T01:24:24;27.00;52.70
62583;DHT22;48641;51.676;5.808;2023-06-22T01:29:24;27.00;52.60
62583;DHT22;48641;51.676;5.808;2023-06-22T01:31:54;27.10;52.60
62583;DHT22;48641;51.676;5.808;2023-06-22T01:34:20;27.10;52.60
62583;DHT22;48641;51.676;5.808;2023-06-22T01:36:46;27.00;52.60
62583;DHT22;48641;51.676;5.808;2023-06-22T01:39:13;26.90;52.80
62583;DHT22;48641;51.676;5.808;2023-06-22T01:41:40;26.90;52.70
62583;DHT22;48641;51.676;5.808;2023-06-22T01:44:08;26.90;52.70
62583;DHT22;48641;51.676;5.808;2023-06-22T01:46:35;26.90;52.70
62583;DHT22;48641;51.676;5.808;2023-06-22T01:49:02;26.90;52.70
62583;DHT22;48641;51.676;5.808;2023-06-22T01:51:28;26.90;52.70
62583;DHT22;48641;51.676;5.808;2023-06-22T01:53:54;26.90;52.70
62583;DHT22;48641;51.676;5.808;2023-06-22T01:56:19;26.90;52.70
62583;DHT22;48641;51.676;5.808;2023-06-22T01:58:55;27.00;52.70
62583;DHT22;48641;51.676;5.808;2023-06-22T02:01:28;27.00;52.60
62583;DHT22;48641;51.676;5.808;2023-06-22T02:04:11;27.00;52.60
62583;DHT22;48641;51.676;5.808;2023-06-22T02:06:39;27.00;52.50
62583;DHT22;48641;51.676;5.808;2023-06-22T02:09:14;27.00;52.60
62583;DHT22;48641;51.676;5.808;2023-06-22T02:11:42;26.90;52.60
62583;DHT22;48641;51.676;5.808;2023-06-22T02:14:10;26.90;52.60
62583;DHT22;48641;51.676;5.808;2023-06-22T02:16:36;26.90;52.60
62583;DHT22;48641;51.676;5.808;2023-06-22T02:19:03;26.90;52.60
62583;DHT22;48641;51.676;5.808;2023-06-22T02:21:29;26.90;52.70
62583;DHT22;48641;51.676;5.808;2023-06-22T02:23:56;26.90;52.70
62583;DHT22;48641;51.676;5.808;2023-06-22T02:26:22;26.90;52.70
62583;DHT22;48641;51.676;5.808;2023-06-22T02:28:49;26.90;52.70
62583;DHT22;48641;51.676;5.808;2023-06-22T02:31:14;26.90;52.60
62583;DHT22;48641;51.676;5.808;2023-06-22T02:33:41;26.90;52.60
62583;DHT22;48641;51.676;5.808;2023-06-22T02:36:07;26.90;52.50
62583;DHT22;48641;51.676;5.808;2023-06-22T02:38:35;26.90;52.50
62583;DHT22;48641;51.676;5.808;2023-06-22T02:41:02;26.90;52.50
62583;DHT22;48641;51.676;5.808;2023-06-22T02:43:28;26.90;52.60
62583;DHT22;48641;51.676;5.808;2023-06-22T02:45:53;26.90;52.60
62583;DHT22;48641;51.676;5.808;2023-06-22T02:48:19;26.90;52.60
62583;DHT22;48641;51.676;5.808;2023-06-22T02:50:45;26.80;52.50
62583;DHT22;48641;51.676;5.808;2023-06-22T02:53:10;26.80;52.50
62583;DHT22;48641;51.676;5.808;2023-06-22T02:55:36;26.80;52.60
62583;DHT22;48641;51.676;5.808;2023-06-22T02:58:01;26.80;52.70
62583;DHT22;48641;51.676;5.808;2023-06-22T03:00:30;26.80;52.60
62583;DHT22;48641;51.676;5.808;2023-06-22T03:02:56;26.80;52.50
62583;DHT22;48641;51.676;5.808;2023-06-22T03:05:22;26.80;52.50
62583;DHT22;48641;51.676;5.808;2023-06-22T03:07:48;26.80;52.50
62583;DHT22;48641;51.676;5.808;2023-06-22T03:10:15;26.90;52.60
62583;DHT22;48641;51.676;5.808;2023-06-22T03:12:42;26.80;52.50
62583;DHT22;48641;51.676;5.808;2023-06-22T03:15:10;26.80;52.50
62583;DHT22;48641;51.676;5.808;2023-06-22T03:17:36;26.80;52.50
62583;DHT22;48641;51.676;5.808;2023-06-22T03:20:04;26.80;52.60
62583;DHT22;48641;51.676;5.808;2023-06-22T03:22:40;26.80;53.60
62583;DHT22;48641;51.676;5.808;2023-06-22T03:25:08;26.80;52.60
62583;DHT22;48641;51.676;5.808;2023-06-22T03:27:36;26.80;52.70
62583;DHT22;48641;51.676;5.808;2023-06-22T03:30:02;26.80;52.70
62583;DHT22;48641;51.676;5.808;2023-06-22T03:32:27;26.70;52.90
62583;DHT22;48641;51.676;5.808;2023-06-22T03:34:53;26.70;52.80
62583;DHT22;48641;51.676;5.808;2023-06-22T03:37:19;26.80;52.80
62583;DHT22;48641;51.676;5.808;2023-06-22T03:39:44;26.80;52.80
62583;DHT22;48641;51.676;5.808;2023-06-22T03:42:10;26.70;52.60
62583;DHT22;48641;51.676;5.808;2023-06-22T03:44:36;26.70;52.60
62583;DHT22;48641;51.676;5.808;2023-06-22T03:47:03;26.70;52.70
62583;DHT22;48641;51.676;5.808;2023-06-22T03:49:29;26.70;52.70
62583;DHT22;48641;51.676;5.808;2023-06-22T03:51:55;26.70;52.60
62583;DHT22;48641;51.676;5.808;2023-06-22T03:54:20;26.70;52.70
62583;DHT22;48641;51.676;5.808;2023-06-22T03:56:46;26.70;52.70
62583;DHT22;48641;51.676;5.808;2023-06-22T03:59:11;26.70;52.70
62583;DHT22;48641;51.676;5.808;2023-06-22T04:01:37;26.70;52.70
62583;DHT22;48641;51.676;5.808;2023-06-22T04:04:03;26.70;52.70
62583;DHT22;48641;51.676;5.808;2023-06-22T04:06:28;26.70;52.60
62583;DHT22;48641;51.676;5.808;2023-06-22T04:08:54;26.70;52.70
62583;DHT22;48641;51.676;5.808;2023-06-22T04:11:19;26.70;52.60
62583;DHT22;48641;51.676;5.808;2023-06-22T04:13:45;26.70;52.60
62583;DHT22;48641;51.676;5.808;2023-06-22T04:16:11;26.70;52.60
62583;DHT22;48641;51.676;5.808;2023-06-22T04:18:36;26.70;52.60
62583;DHT22;48641;51.676;5.808;2023-06-22T04:21:02;26.70;52.60
62583;DHT22;48641;51.676;5.808;2023-06-22T04:23:28;26.60;52.60
62583;DHT22;48641;51.676;5.808;2023-06-22T04:25:54;26.70;52.60
62583;DHT22;48641;51.676;5.808;2023-06-22T04:28:21;26.60;52.60
62583;DHT22;48641;51.676;5.808;2023-06-22T04:30:47;26.60;52.60
62583;DHT22;48641;51.676;5.808;2023-06-22T04:33:16;26.60;52.70
62583;DHT22;48641;51.676;5.808;2023-06-22T04:35:44;26.70;52.80
62583;DHT22;48641;51.676;5.808;2023-06-22T04:38:12;26.60;52.60
62583;DHT22;48641;51.676;5.808;2023-06-22T04:40:41;26.70;52.70
62583;DHT22;48641;51.676;5.808;2023-06-22T04:43:06;26.70;52.70
62583;DHT22;48641;51.676;5.808;2023-06-22T04:45:32;26.60;52.60
62583;DHT22;48641;51.676;5.808;2023-06-22T04:47:58;26.70;52.70
62583;DHT22;48641;51.676;5.808;2023-06-22T04:50:24;26.60;52.60
62583;DHT22;48641;51.676;5.808;2023-06-22T04:52:50;26.60;52.60
62583;DHT22;48641;51.676;5.808;2023-06-22T04:55:17;26.60;52.60
62583;DHT22;48641;51.676;5.808;2023-06-22T04:57:48;26.50;52.60
62583;DHT22;48641;51.676;5.808;2023-06-22T05:00:18;26.60;52.70
62583;DHT22;48641;51.676;5.808;2023-06-22T05:02:47;26.50;52.70
62583;DHT22;48641;51.676;5.808;2023-06-22T05:05:13;26.60;52.70
62583;DHT22;48641;51.676;5.808;2023-06-22T05:07:50;26.50;52.70
62583;DHT22;48641;51.676;5.808;2023-06-22T05:10:19;26.50;52.90
62583;DHT22;48641;51.676;5.808;2023-06-22T05:12:46;26.50;52.90
62583;DHT22;48641;51.676;5.808;2023-06-22T05:15:12;26.50;52.80
62583;DHT22;48641;51.676;5.808;2023-06-22T05:17:38;26.50;52.80
62583;DHT22;48641;51.676;5.808;2023-06-22T05:20:09;26.50;52.80
62583;DHT22;48641;51.676;5.808;2023-06-22T05:22:35;26.50;52.80
62583;DHT22;48641;51.676;5.808;2023-06-22T05:25:00;26.50;52.80
62583;DHT22;48641;51.676;5.808;2023-06-22T05:27:26;26.50;52.70
62583;DHT22;48641;51.676;5.808;2023-06-22T05:29:52;26.50;52.80
62583;DHT22;48641;51.676;5.808;2023-06-22T05:32:17;26.50;52.80
62583;DHT22;48641;51.676;5.808;2023-06-22T05:34:44;26.50;52.80
62583;DHT22;48641;51.676;5.808;2023-06-22T05:37:09;26.50;52.70
62583;DHT22;48641;51.676;5.808;2023-06-22T05:39:35;26.50;52.70
62583;DHT22;48641;51.676;5.808;2023-06-22T05:42:07;26.50;52.60
62583;DHT22;48641;51.676;5.808;2023-06-22T05:44:33;26.50;52.70
62583;DHT22;48641;51.676;5.808;2023-06-22T05:46:59;26.50;52.70
62583;DHT22;48641;51.676;5.808;2023-06-22T05:49:25;26.50;52.70
62583;DHT22;48641;51.676;5.808;2023-06-22T05:51:55;26.50;52.70
62583;DHT22;48641;51.676;5.808;2023-06-22T05:54:22;26.50;52.70
62583;DHT22;48641;51.676;5.808;2023-06-22T05:56:48;26.50;52.70
62583;DHT22;48641;51.676;5.808;2023-06-22T05:59:13;26.50;52.70
62583;DHT22;48641;51.676;5.808;2023-06-22T06:01:39;26.40;52.70
62583;DHT22;48641;51.676;5.808;2023-06-22T06:04:05;26.50;52.80
62583;DHT22;48641;51.676;5.808;2023-06-22T06:06:33;26.50;52.70
62583;DHT22;48641;51.676;5.808;2023-06-22T06:09:03;26.50;52.80
62583;DHT22;48641;51.676;5.808;2023-06-22T06:11:29;26.50;53.70
62583;DHT22;48641;51.676;5.808;2023-06-22T06:13:54;26.40;52.60
62583;DHT22;48641;51.676;5.808;2023-06-22T06:16:20;26.50;52.70
62583;DHT22;48641;51.676;5.808;2023-06-22T06:18:46;26.40;52.60
62583;DHT22;48641;51.676;5.808;2023-06-22T06:21:12;26.40;52.70
62583;DHT22;48641;51.676;5.808;2023-06-22T06:23:37;26.40;52.60
62583;DHT22;48641;51.676;5.808;2023-06-22T06:26:03;26.40;52.80
62583;DHT22;48641;51.676;5.808;2023-06-22T06:28:32;26.40;52.70
62583;DHT22;48641;51.676;5.808;2023-06-22T06:30:58;26.40;52.70
62583;DHT22;48641;51.676;5.808;2023-06-22T06:33:24;26.40;52.70
62583;DHT22;48641;51.676;5.808;2023-06-22T06:35:50;26.40;52.70
62583;DHT22;48641;51.676;5.808;2023-06-22T06:38:15;26.40;52.70
62583;DHT22;48641;51.676;5.808;2023-06-22T06:40:41;26.40;52.70
62583;DHT22;48641;51.676;5.808;2023-06-22T06:43:07;26.40;52.70
62583;DHT22;48641;51.676;5.808;2023-06-22T06:45:32;26.40;52.70
62583;DHT22;48641;51.676;5.808;2023-06-22T06:48:00;26.40;52.60
62583;DHT22;48641;51.676;5.808;2023-06-22T06:50:26;26.40;52.60
62583;DHT22;48641;51.676;5.808;2023-06-22T06:52:51;26.40;52.70
62583;DHT22;48641;51.676;5.808;2023-06-22T06:55:17;26.30;52.60
62583;DHT22;48641;51.676;5.808;2023-06-22T06:57:44;26.40;52.70
62583;DHT22;48641;51.676;5.808;2023-06-22T07:00:13;26.30;52.60
62583;DHT22;48641;51.676;5.808;2023-06-22T07:02:42;26.30;52.70
62583;DHT22;48641;51.676;5.808;2023-06-22T07:05:09;26.30;52.80
62583;DHT22;48641;51.676;5.808;2023-06-22T07:07:34;26.30;52.80
62583;DHT22;48641;51.676;5.808;2023-06-22T07:10:00;26.30;52.80
62583;DHT22;48641;51.676;5.808;2023-06-22T07:12:26;26.30;52.90
62583;DHT22;48641;51.676;5.808;2023-06-22T07:14:52;26.30;52.80
62583;DHT22;48641;51.676;5.808;2023-06-22T07:17:18;26.40;52.80
62583;DHT22;48641;51.676;5.808;2023-06-22T07:19:44;26.40;52.90
62583;DHT22;48641;51.676;5.808;2023-06-22T07:22:09;26.30;52.80
62583;DHT22;48641;51.676;5.808;2023-06-22T07:24:35;26.40;52.80
62583;DHT22;48641;51.676;5.808;2023-06-22T07:27:00;26.40;52.80
62583;DHT22;48641;51.676;5.808;2023-06-22T07:29:27;26.30;52.80
62583;DHT22;48641;51.676;5.808;2023-06-22T07:31:53;26.30;52.90
62583;DHT22;48641;51.676;5.808;2023-06-22T07:34:22;26.30;52.90
62583;DHT22;48641;51.676;5.808;2023-06-22T07:36:48;26.30;52.90
62583;DHT22;48641;51.676;5.808;2023-06-22T07:39:13;26.30;52.90
62583;DHT22;48641;51.676;5.808;2023-06-22T07:41:40;26.30;53.00
62583;DHT22;48641;51.676;5.808;2023-06-22T07:44:08;26.30;52.90
62583;DHT22;48641;51.676;5.808;2023-06-22T07:46:34;26.30;52.90
62583;DHT22;48641;51.676;5.808;2023-06-22T07:49:00;26.30;52.90
62583;DHT22;48641;51.676;5.808;2023-06-22T07:51:26;26.30;52.90
62583;DHT22;48641;51.676;5.808;2023-06-22T07:53:52;26.30;52.90
62583;DHT22;48641;51.676;5.808;2023-06-22T07:56:18;26.30;52.90
62583;DHT22;48641;51.676;5.808;2023-06-22T07:58:47;26.30;52.90
62583;DHT22;48641;51.676;5.808;2023-06-22T08:01:14;26.30;52.90
62583;DHT22;48641;51.676;5.808;2023-06-22T08:03:39;26.20;53.10
62583;DHT22;48641;51.676;5.808;2023-06-22T08:06:05;26.20;53.20
62583;DHT22;48641;51.676;5.808;2023-06-22T08:08:31;26.20;53.20
62583;DHT22;48641;51.676;5.808;2023-06-22T08:10:57;26.20;53.20
62583;DHT22;48641;51.676;5.808;2023-06-22T08:13:23;26.20;53.10
62583;DHT22;48641;51.676;5.808;2023-06-22T08:15:48;26.20;53.10
62583;DHT22;48641;51.676;5.808;2023-06-22T08:18:14;26.30;53.20
62583;DHT22;48641;51.676;5.808;2023-06-22T08:20:41;26.20;53.10
62583;DHT22;48641;51.676;5.808;2023-06-22T08:23:07;26.30;53.10
62583;DHT22;48641;51.676;5.808;2023-06-22T08:25:34;26.30;53.10
62583;DHT22;48641;51.676;5.808;2023-06-22T08:28:00;26.20;52.90
62583;DHT22;48641;51.676;5.808;2023-06-22T08:30:26;26.20;53.00
62583;DHT22;48641;51.676;5.808;2023-06-22T08:32:52;26.20;53.00
62583;DHT22;48641;51.676;5.808;2023-06-22T08:35:19;26.20;53.00
62583;DHT22;48641;51.676;5.808;2023-06-22T08:37:45;26.20;53.00
62583;DHT22;48641;51.676;5.808;2023-06-22T08:40:17;26.20;53.00
62583;DHT22;48641;51.676;5.808;2023-06-22T08:42:43;26.20;53.10
62583;DHT22;48641;51.676;5.808;2023-06-22T08:45:09;26.20;53.10
62583;DHT22;48641;51.676;5.808;2023-06-22T08:47:35;26.20;53.10
62583;DHT22;48641;51.676;5.808;2023-06-22T08:50:01;26.20;53.10
62583;DHT22;48641;51.676;5.808;2023-06-22T08:52:29;26.30;53.10
62583;DHT22;48641;51.676;5.808;2023-06-22T08:54:58;26.30;53.10
62583;DHT22;48641;51.676;5.808;2023-06-22T08:57:23;26.20;53.10
62583;DHT22;48641;51.676;5.808;2023-06-22T08:59:49;26.30;53.10
62583;DHT22;48641;51.676;5.808;2023-06-22T09:02:17;26.20;53.10
62583;DHT22;48641;51.676;5.808;2023-06-22T09:04:43;26.20;53.10
62583;DHT22;48641;51.676;5.808;2023-06-22T09:07:08;26.20;53.10
62583;DHT22;48641;51.676;5.808;2023-06-22T09:09:34;26.20;53.10
62583;DHT22;48641;51.676;5.808;2023-06-22T09:12:00;26.20;53.10
62583;DHT22;48641;51.676;5.808;2023-06-22T09:14:25;26.20;53.30
62583;DHT22;48641;51.676;5.808;2023-06-22T09:16:51;26.20;53.50
62583;DHT22;48641;51.676;5.808;2023-06-22T09:19:17;26.20;53.30
62583;DHT22;48641;51.676;5.808;2023-06-22T09:21:42;26.20;53.20
62583;DHT22;48641;51.676;5.808;2023-06-22T09:24:08;26.20;53.20
62583;DHT22;48641;51.676;5.808;2023-06-22T09:26:33;26.20;53.20
62583;DHT22;48641;51.676;5.808;2023-06-22T09:28:59;26.20;53.20
62583;DHT22;48641;51.676;5.808;2023-06-22T09:31:24;26.20;53.30
62583;DHT22;48641;51.676;5.808;2023-06-22T09:33:53;26.20;53.20
62583;DHT22;48641;51.676;5.808;2023-06-22T09:36:20;26.20;53.20
62583;DHT22;48641;51.676;5.808;2023-06-22T09:38:48;26.20;53.10
62583;DHT22;48641;51.676;5.808;2023-06-22T09:41:20;26.20;53.20
62583;DHT22;48641;51.676;5.808;2023-06-22T09:43:46;26.20;53.30
62583;DHT22;48641;51.676;5.808;2023-06-22T09:46:12;26.20;53.30
62583;DHT22;48641;51.676;5.808;2023-06-22T09:48:38;26.20;53.40
62583;DHT22;48641;51.676;5.808;2023-06-22T09:51:04;26.20;53.30
62583;DHT22;48641;51.676;5.808;2023-06-22T09:53:29;26.20;53.30
62583;DHT22;48641;51.676;5.808;2023-06-22T09:55:55;26.20;53.20
62583;DHT22;48641;51.676;5.808;2023-06-22T09:58:20;26.20;53.20
62583;DHT22;48641;51.676;5.808;2023-06-22T10:00:46;26.20;53.30
62583;DHT22;48641;51.676;5.808;2023-06-22T10:03:11;26.20;53.20
62583;DHT22;48641;51.676;5.808;2023-06-22T10:05:37;26.20;53.20
62583;DHT22;48641;51.676;5.808;2023-06-22T10:08:03;26.20;53.20
62583;DHT22;48641;51.676;5.808;2023-06-22T10:10:28;26.20;53.20
62583;DHT22;48641;51.676;5.808;2023-06-22T10:12:55;26.20;53.20
62583;DHT22;48641;51.676;5.808;2023-06-22T10:15:22;26.20;53.30
62583;DHT22;48641;51.676;5.808;2023-06-22T10:17:48;26.10;53.30
62583;DHT22;48641;51.676;5.808;2023-06-22T10:20:14;26.10;53.40
62583;DHT22;48641;51.676;5.808;2023-06-22T10:22:43;26.10;53.40
62583;DHT22;48641;51.676;5.808;2023-06-22T10:25:10;26.20;53.50
62583;DHT22;48641;51.676;5.808;2023-06-22T10:27:36;26.20;54.40
62583;DHT22;48641;51.676;5.808;2023-06-22T10:30:06;26.20;53.50
62583;DHT22;48641;51.676;5.808;2023-06-22T10:32:32;26.20;53.40
62583;DHT22;48641;51.676;5.808;2023-06-22T10:34:58;26.20;53.40
62583;DHT22;48641;51.676;5.808;2023-06-22T10:37:23;26.20;53.30
62583;DHT22;48641;51.676;5.808;2023-06-22T10:39:49;26.20;53.40
62583;DHT22;48641;51.676;5.808;2023-06-22T10:42:15;26.20;53.30
62583;DHT22;48641;51.676;5.808;2023-06-22T10:44:40;26.20;53.50
62583;DHT22;48641;51.676;5.808;2023-06-22T10:47:08;26.20;53.50
62583;DHT22;48641;51.676;5.808;2023-06-22T10:49:34;26.10;53.40
62583;DHT22;48641;51.676;5.808;2023-06-22T10:51:59;26.10;53.40
62583;DHT22;48641;51.676;5.808;2023-06-22T10:54:25;26.10;53.50
62583;DHT22;48641;51.676;5.808;2023-06-22T10:56:50;26.10;53.50
62583;DHT22;48641;51.676;5.808;2023-06-22T10:59:16;26.10;53.50
62583;DHT22;48641;51.676;5.808;2023-06-22T11:01:42;26.20;53.50
62583;DHT22;48641;51.676;5.808;2023-06-22T11:04:07;26.20;53.50
62583;DHT22;48641;51.676;5.808;2023-06-22T11:06:33;26.20;53.50
62583;DHT22;48641;51.676;5.808;2023-06-22T11:08:59;26.20;53.50
62583;DHT22;48641;51.676;5.808;2023-06-22T11:11:25;26.10;53.50
62583;DHT22;48641;51.676;5.808;2023-06-22T11:13:52;26.20;53.50
62583;DHT22;48641;51.676;5.808;2023-06-22T11:16:17;26.10;53.50
62583;DHT22;48641;51.676;5.808;2023-06-22T11:18:43;26.10;53.40
62583;DHT22;48641;51.676;5.808;2023-06-22T11:21:08;26.10;53.50
62583;DHT22;48641;51.676;5.808;2023-06-22T11:23:34;26.10;53.50
62583;DHT22;48641;51.676;5.808;2023-06-22T11:26:00;26.10;53.50
62583;DHT22;48641;51.676;5.808;2023-06-22T11:28:25;26.10;53.50
62583;DHT22;48641;51.676;5.808;2023-06-22T11:30:51;26.10;53.50
62583;DHT22;48641;51.676;5.808;2023-06-22T11:33:17;26.10;53.50
62583;DHT22;48641;51.676;5.808;2023-06-22T11:35:42;26.10;53.50
62583;DHT22;48641;51.676;5.808;2023-06-22T11:38:08;26.10;53.50
62583;DHT22;48641;51.676;5.808;2023-06-22T11:40:34;26.20;53.50
62583;DHT22;48641;51.676;5.808;2023-06-22T11:42:59;26.20;53.50
62583;DHT22;48641;51.676;5.808;2023-06-22T11:45:25;26.10;53.50
62583;DHT22;48641;51.676;5.808;2023-06-22T11:47:51;26.20;53.50
62583;DHT22;48641;51.676;5.808;2023-06-22T11:50:16;26.10;53.50
62583;DHT22;48641;51.676;5.808;2023-06-22T11:52:42;26.10;53.50
62583;DHT22;48641;51.676;5.808;2023-06-22T11:55:08;26.10;53.50
62583;DHT22;48641;51.676;5.808;2023-06-22T11:57:35;26.10;53.50
62583;DHT22;48641;51.676;5.808;2023-06-22T12:00:01;26.00;53.50
62583;DHT22;48641;51.676;5.808;2023-06-22T12:02:27;26.10;53.60
62583;DHT22;48641;51.676;5.808;2023-06-22T12:04:53;26.10;53.70
62583;DHT22;48641;51.676;5.808;2023-06-22T12:07:21;26.00;53.60
62583;DHT22;48641;51.676;5.808;2023-06-22T12:09:47;26.10;53.70
62583;DHT22;48641;51.676;5.808;2023-06-22T12:12:12;26.10;53.70
62583;DHT22;48641;51.676;5.808;2023-06-22T12:14:39;26.10;53.60
62583;DHT22;48641;51.676;5.808;2023-06-22T12:17:04;26.10;53.50
62583;DHT22;48641;51.676;5.808;2023-06-22T12:19:30;26.10;53.50
62583;DHT22;48641;51.676;5.808;2023-06-22T12:21:56;26.10;53.50
62583;DHT22;48641;51.676;5.808;2023-06-22T12:24:21;26.10;53.60
62583;DHT22;48641;51.676;5.808;2023-06-22T12:26:47;26.00;53.60
62583;DHT22;48641;51.676;5.808;2023-06-22T12:29:13;26.10;53.70
62583;DHT22;48641;51.676;5.808;2023-06-22T12:31:38;26.10;53.80
62583;DHT22;48641;51.676;5.808;2023-06-22T12:34:05;26.10;53.80
62583;DHT22;48641;51.676;5.808;2023-06-22T12:36:30;26.00;53.70
62583;DHT22;48641;51.676;5.808;2023-06-22T12:38:56;26.00;53.80
62583;DHT22;48641;51.676;5.808;2023-06-22T12:41:22;26.00;53.70
62583;DHT22;48641;51.676;5.808;2023-06-22T12:43:47;26.00;53.70
62583;DHT22;48641;51.676;5.808;2023-06-22T12:46:13;26.00;53.70
62583;DHT22;48641;51.676;5.808;2023-06-22T12:48:38;26.10;53.70
62583;DHT22;48641;51.676;5.808;2023-06-22T12:51:07;26.10;53.70
62583;DHT22;48641;51.676;5.808;2023-06-22T12:53:34;26.00;53.40
62583;DHT22;48641;51.676;5.808;2023-06-22T12:55:59;25.90;53.90
62583;DHT22;48641;51.676;5.808;2023-06-22T12:58:25;26.00;53.80
62583;DHT22;48641;51.676;5.808;2023-06-22T13:00:50;26.00;53.90
62583;DHT22;48641;51.676;5.808;2023-06-22T13:03:16;26.00;53.90
62583;DHT22;48641;51.676;5.808;2023-06-22T13:05:42;25.90;53.90
62583;DHT22;48641;51.676;5.808;2023-06-22T13:08:07;26.00;53.90
62583;DHT22;48641;51.676;5.808;2023-06-22T13:10:33;26.00;53.90
62583;DHT22;48641;51.676;5.808;2023-06-22T13:12:59;26.00;53.90
62583;DHT22;48641;51.676;5.808;2023-06-22T13:15:28;26.00;53.90
62583;DHT22;48641;51.676;5.808;2023-06-22T13:17:55;25.90;53.80
62583;DHT22;48641;51.676;5.808;2023-06-22T13:20:20;25.90;55.00
62583;DHT22;48641;51.676;5.808;2023-06-22T13:22:46;25.90;54.10
62583;DHT22;48641;51.676;5.808;2023-06-22T13:25:11;26.00;54.00
62583;DHT22;48641;51.676;5.808;2023-06-22T13:27:39;26.00;54.00
62583;DHT22;48641;51.676;5.808;2023-06-22T13:30:05;25.90;53.90
62583;DHT22;48641;51.676;5.808;2023-06-22T13:32:31;26.00;53.90
62583;DHT22;48641;51.676;5.808;2023-06-22T13:34:57;26.00;54.00
62583;DHT22;48641;51.676;5.808;2023-06-22T13:37:23;26.00;53.90
62583;DHT22;48641;51.676;5.808;2023-06-22T13:39:51;25.90;53.90
62583;DHT22;48641;51.676;5.808;2023-06-22T13:42:16;25.90;53.90
62583;DHT22;48641;51.676;5.808;2023-06-22T13:44:42;25.90;53.90
62583;DHT22;48641;51.676;5.808;2023-06-22T13:47:08;25.90;53.90
62583;DHT22;48641;51.676;5.808;2023-06-22T13:49:33;26.00;54.00
62583;DHT22;48641;51.676;5.808;2023-06-22T13:51:59;25.90;53.90
62583;DHT22;48641;51.676;5.808;2023-06-22T13:54:25;25.90;53.90
62583;DHT22;48641;51.676;5.808;2023-06-22T13:56:50;25.90;53.90
62583;DHT22;48641;51.676;5.808;2023-06-22T13:59:16;26.00;53.90
62583;DHT22;48641;51.676;5.808;2023-06-22T14:01:42;26.00;53.80
62583;DHT22;48641;51.676;5.808;2023-06-22T14:04:08;26.00;53.80
62583;DHT22;48641;51.676;5.808;2023-06-22T14:06:34;26.00;53.90
62583;DHT22;48641;51.676;5.808;2023-06-22T14:09:00;26.00;53.80
62583;DHT22;48641;51.676;5.808;2023-06-22T14:11:30;26.00;53.90
62583;DHT22;48641;51.676;5.808;2023-06-22T14:13:56;26.00;53.90
62583;DHT22;48641;51.676;5.808;2023-06-22T14:16:21;26.00;53.90
62583;DHT22;48641;51.676;5.808;2023-06-22T14:18:47;26.00;53.90
62583;DHT22;48641;51.676;5.808;2023-06-22T14:21:12;26.00;53.90
62583;DHT22;48641;51.676;5.808;2023-06-22T14:23:38;25.90;54.90
62583;DHT22;48641;51.676;5.808;2023-06-22T14:26:03;26.00;54.00
62583;DHT22;48641;51.676;5.808;2023-06-22T14:28:29;25.90;53.90
62583;DHT22;48641;51.676;5.808;2023-06-22T14:30:55;25.90;54.00
62583;DHT22;48641;51.676;5.808;2023-06-22T14:33:21;25.90;53.90
62583;DHT22;48641;51.676;5.808;2023-06-22T14:35:47;25.90;53.90
62583;DHT22;48641;51.676;5.808;2023-06-22T14:38:13;25.90;54.10
62583;DHT22;48641;51.676;5.808;2023-06-22T14:40:38;25.90;54.30
62583;DHT22;48641;51.676;5.808;2023-06-22T14:43:04;25.90;54.40
62583;DHT22;48641;51.676;5.808;2023-06-22T14:45:29;25.90;54.40
62583;DHT22;48641;51.676;5.808;2023-06-22T14:47:55;25.90;54.40
62583;DHT22;48641;51.676;5.808;2023-06-22T14:50:21;25.90;54.50
62583;DHT22;48641;51.676;5.808;2023-06-22T14:52:46;25.90;54.60
62583;DHT22;48641;51.676;5.808;2023-06-22T14:55:12;25.90;54.60
62583;DHT22;48641;51.676;5.808;2023-06-22T14:57:38;25.90;54.60
62583;DHT22;48641;51.676;5.808;2023-06-22T15:00:04;26.00;54.60
62583;DHT22;48641;51.676;5.808;2023-06-22T15:02:31;26.00;54.70
62583;DHT22;48641;51.676;5.808;2023-06-22T15:04:57;26.00;54.60
62583;DHT22;48641;51.676;5.808;2023-06-22T15:07:25;26.00;54.50
62583;DHT22;48641;51.676;5.808;2023-06-22T15:12:26;26.00;54.50
62583;DHT22;48641;51.676;5.808;2023-06-22T15:14:53;26.00;54.40
62583;DHT22;48641;51.676;5.808;2023-06-22T15:17:18;26.00;54.60
62583;DHT22;48641;51.676;5.808;2023-06-22T15:19:47;26.00;54.50
62583;DHT22;48641;51.676;5.808;2023-06-22T15:22:13;26.00;54.60
62583;DHT22;48641;51.676;5.808;2023-06-22T15:24:38;26.00;54.60
62583;DHT22;48641;51.676;5.808;2023-06-22T15:27:04;26.00;54.50
62583;DHT22;48641;51.676;5.808;2023-06-22T15:29:30;26.00;54.40
62583;DHT22;48641;51.676;5.808;2023-06-22T15:31:59;26.10;54.30
62583;DHT22;48641;51.676;5.808;2023-06-22T15:34:25;26.10;54.10